Historique des mesures à Cassis (13260), France
Quotidien Résumé Janvier 14, 2019 Unités:  Métrique    US   Métrique/US
« Précédent (Jour)
Suivant (Jour) »
Quotidien Hebdomadaire Mensuel Annuel Période au choix
  Maximum: Minimum: Moyenne:
Température: TemperatureC °C 9.4 °C 11.5 °C
Point de rosée: DewpointC °C 0.0 °C 3.1 °C
Humidité: Humidity % 43 % 53 %
Vitesse du vent: 0 km/h 15.6 km/h 32 km/h
Rafales: 0 km/h - -
Vent:- - West
Pression: PressurehPa hPa 1006.2 hPa -
Précipitations: 0.0 mm    
Historical Graphs
 
 
Mesures pour : Janvier 14, 2019
Heure Temperature Point de rosée Pression Vent Vitesse du vent Rafales Humidité Pluie (par heure) Conditions
TemperatureC °C DewpointC °C PressurehPa hPa Calm     Humidity % HourlyPrecipMM mm SoftwareType W/m2
00:10 12.9 °C 6.0 °C 1007.0 hPa NNW 29.5 km/h 57.9 km/h 63 % 0.0 mm open2300-1.11 W/m2
01:10 13.0 °C 5.8 °C 1006.9 hPa NNW 24.8 km/h 38.8 km/h 62 % 0.0 mm open2300-1.11 W/m2
02:10 12.3 °C 5.7 °C 1006.5 hPa NW 24.8 km/h 51 km/h 64 % 0.0 mm open2300-1.11 W/m2
03:10 11.9 °C 5.5 °C 1007.2 hPa NW 29 km/h 29 km/h 65 % 0.0 mm open2300-1.11 W/m2
04:10 11.8 °C 5.4 °C 1006.3 hPa NW 23 km/h 45.1 km/h 65 % 0.0 mm open2300-1.11 W/m2
05:10 12.0 °C 4.9 °C 1006.2 hPa WSW 52 km/h 52 km/h 62 % 0.0 mm open2300-1.11 W/m2
06:10 12.0 °C 4.7 °C 1006.6 hPa North 20.3 km/h 53.3 km/h 61 % 0.0 mm open2300-1.11 W/m2
07:10 11.5 °C 4.7 °C 1006.9 hPa NW 15.6 km/h 20.3 km/h 63 % 0.0 mm open2300-1.11 W/m2
08:10 11.8 °C 4.3 °C 1007.3 hPa WNW 29 km/h 40.7 km/h 60 % 0.0 mm open2300-1.11 W/m2
09:10 11.8 °C 4.5 °C 1007.8 hPa NNW 31.9 km/h 31.9 km/h 61 % 0.0 mm open2300-1.11 W/m2
10:10 12.1 °C 4.1 °C 1007.5 hPa West 30.7 km/h 49.2 km/h 58 % 0.0 mm open2300-1.11 W/m2
11:10 12.8 °C 4.2 °C 1006.9 hPa North 39.9 km/h 50.5 km/h 56 % 0.0 mm open2300-1.11 W/m2
12:10 12.9 °C 3.8 °C 1006.8 hPa NW 36 km/h 36 km/h 54 % 0.0 mm open2300-1.11 W/m2
13:10 14.4 °C 3.5 °C 1007.2 hPa NW 33.2 km/h 43.5 km/h 48 % 0.0 mm open2300-1.11 W/m2
14:10 14.1 °C 3.9 °C 1007.2 hPa North 16.9 km/h 60.3 km/h 50 % 0.0 mm open2300-1.11 W/m2
15:10 13.8 °C 2.9 °C 1007.4 hPa North 29 km/h 29 km/h 48 % 0.0 mm open2300-1.11 W/m2
16:10 12.9 °C 0.6 °C 1007.7 hPa NNW 39.4 km/h 39.4 km/h 43 % 0.0 mm open2300-1.11 W/m2
17:10 12.3 °C 0.0 °C 1007.4 hPa NW 65.5 km/h 65.5 km/h 43 % 0.0 mm open2300-1.11 W/m2
18:10 11.4 °C 0.1 °C 1007.6 hPa NNW 31.4 km/h 57.9 km/h 46 % 0.0 mm open2300-1.11 W/m2
19:10 10.7 °C 0.4 °C 1008.6 hPa NNW 27.2 km/h 38.3 km/h 49 % 0.0 mm open2300-1.11 W/m2
20:10 10.2 °C 0.6 °C 1009.2 hPa WNW 33.2 km/h 61.3 km/h 51 % 0.0 mm open2300-1.11 W/m2
21:10 9.8 °C 0.4 °C 1009.1 hPa NW 46.3 km/h 51 km/h 52 % 0.0 mm open2300-1.11 W/m2
22:10 9.8 °C 0.7 °C 1009.8 hPa WNW 48.6 km/h 48.6 km/h 53 % 0.0 mm open2300-1.11 W/m2
23:10 9.4 °C 1.1 °C 1010.3 hPa WNW 44.6 km/h 65.5 km/h 56 % 0.0 mm open2300-1.11 W/m2
Observations météo à CASSIS
WU-History script by Weather Underground - 1 mb